Terminal Aerodrome Forecast
Issued by NWS

Home | Current Version | Previous Version | Text Only | Print | Product List | Glossary On
Versions: 1 2 3 4 5 6 7 8 9 10 11 12 13 14 15 16
000
FTUS44 KEPZ 221700 CCA
TAFTCS
TAF COR
KTCS 221750Z 2218/2318 13007KT P6SM VCTS BKN030CB BKN060
      TEMPO 2218/2222 VRB15G30KT 3SM TSRA FEW012 BKN025CB
     FM222200 15010KT P6SM VCTS FEW015 BKN030CB BKN080
      TEMPO 2300/2304 VRB15G25KT 3SM TSRA BKN025CB OVC050=

USA.gov is the U.S. government's official web portal to all federal, state and local government web resources and services.